Time;durP1;ratioP1;P1;durP2;ratioP2;P2;SDS_P1;SDS_P2;PMS_P1;PMS_P2;Temp;Humidity;BMP_temperature;BMP_pressure;BME280_temperature;BME280_humidity;BME280_pressure;Samples;Min_cycle;Max_cycle;Signal;HPM_P1;HPM_P2
2021/11/12 00:13:43;;;;;;;19.77;13.38;;;17.50;99.90;;;;;;5134426;27;20483;-74
2021/11/12 00:16:09;;;;;;;20.30;13.65;;;17.50;99.90;;;;;;5134735;27;20077;-74
2021/11/12 00:18:36;;;;;;;19.67;12.50;;;17.50;99.90;;;;;;5134579;27;20023;-71
2021/11/12 00:21:03;;;;;;;18.42;13.07;;;17.40;99.90;;;;;;5132982;27;20046;-74
2021/11/12 00:23:31;;;;;;;18.98;12.32;;;17.40;99.90;;;;;;5134425;27;20035;-74
2021/11/12 00:25:57;;;;;;;20.67;12.45;;;17.40;99.90;;;;;;5134661;27;20092;-74
2021/11/12 00:28:26;;;;;;;18.90;12.70;;;17.40;99.90;;;;;;5134433;27;20019;-75
2021/11/12 00:31:03;;;;;;;16.38;11.40;;;17.30;99.90;;;;;;5133999;27;20099;-73
2021/11/12 00:38:36;;;;;;;13.93;10.73;;;17.20;99.80;;;;;;5134141;27;20027;-73
2021/11/12 00:43:52;;;;;;;16.70;11.18;;;17.20;99.90;;;;;;5134200;27;20045;-75
2021/11/12 00:46:35;;;;;;;25.33;11.23;;;17.20;99.80;;;;;;5134272;27;20429;-74
2021/11/12 00:49:06;;;;;;;16.17;9.90;;;17.20;99.90;;;;;;5134206;27;20096;-72
2021/11/12 00:51:39;;;;;;;17.88;10.80;;;17.10;99.80;;;;;;5133528;27;20392;-75
2021/11/12 00:54:08;;;;;;;14.80;10.73;;;17.10;99.90;;;;;;5133555;27;20037;-75
2021/11/12 00:56:34;;;;;;;14.27;10.20;;;17.10;99.90;;;;;;5133894;28;20081;-76
2021/11/12 00:59:04;;;;;;;17.08;10.40;;;17.00;99.90;;;;;;5133026;27;20360;-74
2021/11/12 01:01:32;;;;;;;17.45;11.00;;;17.00;99.90;;;;;;5133496;27;20424;-75
2021/11/12 01:03:58;;;;;;;19.42;10.23;;;17.00;99.90;;;;;;5133730;27;20451;-75
2021/11/12 01:06:24;;;;;;;16.55;10.65;;;17.00;99.90;;;;;;5133792;27;20107;-75
2021/11/12 01:08:51;;;;;;;19.00;10.60;;;17.10;99.90;;;;;;5133795;27;20059;-71
2021/11/12 01:11:18;;;;;;;15.55;10.65;;;17.00;99.80;;;;;;5133423;27;20030;-71
2021/11/12 01:13:46;;;;;;;18.15;10.70;;;17.10;99.90;;;;;;5133543;27;20110;-71
2021/11/12 01:16:12;;;;;;;19.10;10.05;;;17.10;99.90;;;;;;5133517;27;20437;-74
2021/11/12 01:18:39;;;;;;;16.58;9.85;;;17.10;99.80;;;;;;5133539;28;20048;-75
2021/11/12 01:21:08;;;;;;;18.40;10.35;;;17.10;99.80;;;;;;5132310;28;20556;-74
2021/11/12 01:23:34;;;;;;;16.45;10.73;;;17.20;99.80;;;;;;5133850;27;20110;-74
2021/11/12 01:26:00;;;;;;;16.52;10.90;;;17.10;99.60;;;;;;5133678;27;20030;-76
2021/11/12 01:28:26;;;;;;;16.95;11.63;;;17.10;99.70;;;;;;5133584;28;20132;-75
2021/11/12 01:30:53;;;;;;;16.55;10.93;;;17.10;99.60;;;;;;5133564;27;20087;-75
2021/11/12 01:33:19;;;;;;;15.93;11.02;;;17.10;99.60;;;;;;5133430;27;20036;-75
2021/11/12 01:35:45;;;;;;;20.92;10.50;;;17.10;99.60;;;;;;5133305;27;20384;-76
2021/11/12 01:38:10;;;;;;;14.95;10.50;;;17.20;99.60;;;;;;5133415;28;20031;-73
2021/11/12 01:40:37;;;;;;;15.48;10.93;;;17.10;99.50;;;;;;5133452;27;20026;-68
2021/11/12 01:43:15;;;;;;;17.58;11.32;;;17.20;99.50;;;;;;5133301;27;20034;-69
2021/11/12 01:53:28;;;;;;;16.77;9.75;;;17.20;99.20;;;;;;5133324;28;20035;-73
2021/11/12 01:56:12;;;;;;;12.85;8.32;;;17.20;99.30;;;;;;5133523;27;20027;-74
2021/11/12 02:01:24;;;;;;;12.48;6.15;;;17.10;99.10;;;;;;5133307;28;20170;-70
2021/11/12 02:03:51;;;;;;;10.90;5.70;;;17.00;99.10;;;;;;5133207;27;20496;-70
2021/11/12 02:06:18;;;;;;;10.48;5.85;;;16.90;99.20;;;;;;5133191;27;20012;-73
2021/11/12 02:08:45;;;;;;;9.90;5.30;;;16.90;99.50;;;;;;5133382;27;20154;-74
2021/11/12 02:11:11;;;;;;;8.40;4.63;;;16.90;99.50;;;;;;5136643;27;20468;-73
2021/11/12 02:13:37;;;;;;;8.13;5.15;;;16.90;99.60;;;;;;5136745;27;20088;-75
2021/11/12 02:16:07;;;;;;;8.48;4.60;;;16.80;99.60;;;;;;5136861;27;20035;-73
2021/11/12 02:18:40;;;;;;;7.40;4.85;;;16.80;99.80;;;;;;5136563;27;20055;-75
2021/11/12 02:26:31;;;;;;;12.20;5.32;;;16.70;99.80;;;;;;5112194;27;20415;-75
2021/11/12 02:28:58;;;;;;;11.82;5.30;;;16.70;99.80;;;;;;5136610;27;20038;-74
2021/11/12 02:31:26;;;;;;;8.48;4.78;;;16.70;99.70;;;;;;5136400;27;20142;-68
2021/11/12 02:33:53;;;;;;;10.10;5.20;;;16.70;99.70;;;;;;5136109;27;20042;-70
2021/11/12 02:36:19;;;;;;;8.95;4.45;;;16.70;99.80;;;;;;5136168;27;20037;-74
2021/11/12 02:38:48;;;;;;;9.13;4.82;;;16.70;99.80;;;;;;5136412;27;20023;-75
2021/11/12 02:41:15;;;;;;;8.98;4.75;;;16.80;99.90;;;;;;5136047;27;20468;-74
2021/11/12 02:43:45;;;;;;;8.77;4.68;;;16.80;99.90;;;;;;5136067;27;20098;-75
2021/11/12 02:46:13;;;;;;;11.98;5.50;;;16.80;99.90;;;;;;5134770;27;20142;-68
2021/11/12 02:48:41;;;;;;;10.93;4.95;;;16.80;99.90;;;;;;5135857;27;20030;-73
2021/11/12 02:51:11;;;;;;;10.05;4.68;;;16.80;99.90;;;;;;5134801;27;20445;-71
2021/11/12 02:53:38;;;;;;;10.25;4.93;;;16.80;99.90;;;;;;5136121;27;20118;-75
2021/11/12 02:56:09;;;;;;;10.52;5.35;;;16.80;99.90;;;;;;5135925;27;20019;-73
2021/11/12 02:58:37;;;;;;;9.52;4.88;;;16.80;99.90;;;;;;5136012;27;20027;-74
2021/11/12 03:01:04;;;;;;;9.35;5.40;;;16.80;99.90;;;;;;5136015;27;20027;-75
2021/11/12 03:03:29;;;;;;;10.25;4.85;;;16.80;99.90;;;;;;5135849;27;20031;-73
2021/11/12 03:05:56;;;;;;;10.32;5.25;;;16.80;99.90;;;;;;5134315;27;20514;-73
2021/11/12 03:08:21;;;;;;;9.85;5.22;;;16.80;99.90;;;;;;5135623;27;20034;-73
2021/11/12 03:10:49;;;;;;;9.93;4.50;;;16.80;99.90;;;;;;5135735;27;20069;-75
2021/11/12 03:13:15;;;;;;;12.35;5.03;;;16.70;99.90;;;;;;5135571;27;20130;-74
2021/11/12 03:15:41;;;;;;;8.68;4.53;;;16.70;99.90;;;;;;5135718;27;20110;-72
2021/11/12 03:18:08;;;;;;;6.65;4.05;;;16.70;99.90;;;;;;5136762;27;20079;-70
2021/11/12 03:20:35;;;;;;;7.93;3.95;;;16.70;99.90;;;;;;5135645;27;20030;-75
2021/11/12 03:23:08;;;;;;;7.88;4.38;;;16.60;99.90;;;;;;5136271;27;20130;-74
2021/11/12 03:25:55;;;;;;;9.25;3.80;;;16.60;99.90;;;;;;5135569;27;20098;-74
2021/11/12 03:28:43;;;;;;;7.60;4.07;;;16.50;99.90;;;;;;5135235;27;20118;-75
2021/11/12 05:03:18;;;;;;;13.68;9.45;;;16.10;99.90;;;;;;5134108;28;20038;-73
2021/11/12 05:46:41;;;;;;;19.30;11.95;;;15.70;99.90;;;;;;5137719;27;20122;-68
2021/11/12 05:57:29;;;;;;;18.65;11.95;;;15.80;99.90;;;;;;5116794;28;20035;-72
2021/11/12 05:59:55;;;;;;;16.55;11.40;;;15.70;99.90;;;;;;5116556;28;20020;-68
2021/11/12 06:02:22;;;;;;;20.88;11.07;;;15.70;99.90;;;;;;5116386;28;20036;-65
2021/11/12 06:04:48;;;;;;;14.70;10.65;;;15.70;99.90;;;;;;5116563;28;20028;-67
2021/11/12 06:07:14;;;;;;;16.35;11.10;;;15.70;99.90;;;;;;5116544;28;20035;-72
2021/11/12 06:09:39;;;;;;;21.08;11.43;;;15.70;99.90;;;;;;5116619;28;20023;-70
2021/11/12 06:12:10;;;;;;;18.63;11.13;;;15.70;99.90;;;;;;5116284;27;20038;-73
2021/11/12 06:14:36;;;;;;;18.88;11.43;;;15.70;99.90;;;;;;5116334;28;20032;-73
2021/11/12 06:17:02;;;;;;;15.65;11.05;;;15.80;99.90;;;;;;5116290;28;20034;-70
2021/11/12 06:19:28;;;;;;;18.52;10.73;;;15.80;99.90;;;;;;5116162;28;20081;-70
2021/11/12 06:21:54;;;;;;;15.35;10.98;;;15.80;99.90;;;;;;5115960;28;20515;-77
2021/11/12 06:24:19;;;;;;;21.27;10.93;;;15.90;99.90;;;;;;5116162;28;20070;-74
2021/11/12 06:26:46;;;;;;;17.40;11.13;;;15.90;99.90;;;;;;5116163;28;20080;-74
2021/11/12 06:29:12;;;;;;;21.27;11.63;;;15.80;99.90;;;;;;5116172;28;20016;-70
2021/11/12 06:31:37;;;;;;;18.92;11.75;;;15.80;99.90;;;;;;5115832;28;20441;-72
2021/11/12 06:34:03;;;;;;;17.65;11.73;;;15.80;99.90;;;;;;5115955;28;20032;-76
2021/11/12 06:36:29;;;;;;;18.10;12.38;;;15.90;99.90;;;;;;5115885;28;20024;-74
2021/11/12 06:38:56;;;;;;;20.27;11.98;;;15.90;99.90;;;;;;5115685;28;20081;-70
2021/11/12 06:41:40;;;;;;;17.48;11.43;;;15.90;99.90;;;;;;5115679;28;20034;-73
2021/11/12 06:52:27;;;;;;;15.80;11.27;;;15.90;99.90;;;;;;5136093;27;20447;-73
2021/11/12 06:54:54;;;;;;;16.38;11.73;;;15.90;99.90;;;;;;5135978;27;20019;-77
2021/11/12 06:57:21;;;;;;;20.60;11.95;;;16.00;99.90;;;;;;5134952;27;20053;-76
2021/11/12 06:59:49;;;;;;;23.33;12.57;;;16.00;99.90;;;;;;5134666;27;20123;-75
2021/11/12 07:02:17;;;;;;;18.15;11.57;;;16.10;99.90;;;;;;5123450;27;20516;-75
2021/11/12 07:04:43;;;;;;;21.38;12.48;;;16.10;99.90;;;;;;5114901;28;20470;-72
2021/11/12 07:07:09;;;;;;;18.73;11.98;;;16.10;99.90;;;;;;5115224;28;20031;-76
2021/11/12 07:09:35;;;;;;;19.48;12.30;;;16.10;99.90;;;;;;5114876;28;20469;-76
2021/11/12 07:12:01;;;;;;;18.58;12.27;;;16.20;99.90;;;;;;5113547;28;20036;-69
2021/11/12 07:14:27;;;;;;;21.27;16.00;;;16.20;99.90;;;;;;5114811;28;20063;-68
2021/11/12 07:16:53;;;;;;;23.70;14.68;;;16.30;99.90;;;;;;5129328;27;20042;-68
2021/11/12 07:19:19;;;;;;;24.48;13.55;;;16.30;99.90;;;;;;5135360;27;20468;-73
2021/11/12 07:21:46;;;;;;;18.30;13.25;;;16.30;99.90;;;;;;5127957;27;20039;-72
2021/11/12 07:24:12;;;;;;;20.38;12.35;;;16.40;99.90;;;;;;5120747;27;20036;-73
2021/11/12 07:26:38;;;;;;;19.08;13.45;;;16.40;99.90;;;;;;5126821;27;20360;-75
2021/11/12 07:29:04;;;;;;;22.52;12.80;;;16.40;99.90;;;;;;5116571;27;20028;-69
2021/11/12 07:31:31;;;;;;;28.00;13.95;;;16.50;99.90;;;;;;5114445;28;20070;-68
2021/11/12 07:33:59;;;;;;;20.58;12.27;;;16.50;99.90;;;;;;5122313;27;20539;-68
2021/11/12 07:36:35;;;;;;;19.02;13.25;;;16.50;99.90;;;;;;5114116;28;20387;-69
2021/11/12 07:39:05;;;;;;;21.98;14.18;;;16.50;99.90;;;;;;5114330;28;20020;-67
2021/11/12 07:47:10;;;;;;;22.48;13.65;;;16.70;99.90;;;;;;5131685;27;20042;-77
2021/11/12 07:49:24;;;;;;;17.58;10.15;;;16.70;99.90;;;;;;5132781;27;20038;-71
2021/11/12 07:51:50;;;;;;;13.00;8.90;;;16.80;99.90;;;;;;5134508;27;20024;-69
2021/11/12 07:54:16;;;;;;;12.73;8.32;;;17.00;99.90;;;;;;5131459;27;20043;-67
2021/11/12 07:56:43;;;;;;;13.77;9.20;;;17.10;99.90;;;;;;5134822;27;20023;-67
2021/11/12 07:59:09;;;;;;;13.38;8.05;;;17.10;99.90;;;;;;5133404;27;20031;-67
2021/11/12 08:01:34;;;;;;;13.40;7.93;;;17.20;99.90;;;;;;5116813;27;20042;-67
2021/11/12 08:04:03;;;;;;;14.25;8.52;;;17.30;99.90;;;;;;5134293;27;20548;-70
2021/11/12 08:06:30;;;;;;;11.80;8.15;;;17.30;99.70;;;;;;5134218;27;20442;-67
2021/11/12 08:09:02;;;;;;;12.23;7.80;;;17.40;99.40;;;;;;5132957;27;20080;-74
2021/11/12 08:11:37;;;;;;;13.90;8.32;;;17.50;99.30;;;;;;5131019;27;20031;-76
2021/11/12 08:22:06;;;;;;;16.95;10.60;;;17.50;99.10;;;;;;5114658;28;20043;-80
2021/11/12 08:43:03;;;;;;;22.30;14.82;;;17.60;99.60;;;;;;5114289;28;20103;-79
2021/11/12 08:48:23;;;;;;;21.83;13.93;;;17.60;99.60;;;;;;5093153;28;20362;-70
2021/11/12 08:50:49;;;;;;;20.23;14.05;;;17.70;99.60;;;;;;5113404;28;20038;-67
2021/11/12 08:53:18;;;;;;;24.45;14.27;;;17.80;99.50;;;;;;5116052;28;20031;-77
2021/11/12 08:55:45;;;;;;;22.95;13.20;;;17.80;99.50;;;;;;5113808;28;20031;-79
2021/11/12 08:58:11;;;;;;;22.42;13.43;;;17.70;99.50;;;;;;5113432;28;20027;-82
2021/11/12 09:00:40;;;;;;;21.08;13.50;;;17.80;99.50;;;;;;5113789;28;20027;-79
2021/11/12 09:03:06;;;;;;;29.17;14.02;;;17.80;99.50;;;;;;5113206;28;20016;-81
2021/11/12 09:05:34;;;;;;;23.85;12.88;;;17.80;99.50;;;;;;5113234;28;20122;-81
2021/11/12 09:08:01;;;;;;;16.77;12.23;;;17.80;99.30;;;;;;5113208;28;20023;-78
2021/11/12 09:10:30;;;;;;;19.52;13.18;;;17.90;99.40;;;;;;5113477;28;20034;-81
2021/11/12 09:13:11;;;;;;;20.27;12.40;;;17.90;99.40;;;;;;5112000;28;20107;-82
2021/11/12 09:15:36;;;;;;;19.30;11.55;;;17.90;99.20;;;;;;5113403;28;20042;-77
2021/11/12 09:18:03;;;;;;;25.75;13.57;;;18.00;99.10;;;;;;5113291;28;20024;-74
2021/11/12 09:20:30;;;;;;;22.73;12.68;;;18.10;99.00;;;;;;5116221;28;20369;-80
2021/11/12 09:22:58;;;;;;;20.40;13.18;;;18.30;98.90;;;;;;5117170;28;20130;-81
2021/11/12 09:25:25;;;;;;;25.42;14.65;;;18.40;98.60;;;;;;5117336;28;20068;-81
2021/11/12 09:27:51;;;;;;;24.90;14.05;;;18.50;98.50;;;;;;5117318;28;20024;-81
2021/11/12 09:30:22;;;;;;;27.13;15.32;;;18.60;98.20;;;;;;5117385;28;20487;-80
2021/11/12 09:32:52;;;;;;;24.77;14.10;;;18.70;98.10;;;;;;5115870;28;20031;-79
2021/11/12 09:35:19;;;;;;;25.70;14.23;;;18.80;97.80;;;;;;5116098;28;20051;-77
2021/11/12 09:37:45;;;;;;;25.92;13.10;;;18.90;97.60;;;;;;5117275;28;20016;-77
2021/11/12 09:40:11;;;;;;;20.95;12.60;;;19.10;97.50;;;;;;5117105;28;20445;-80
2021/11/12 09:42:38;;;;;;;18.90;12.38;;;19.10;97.10;;;;;;5116138;28;20034;-80
2021/11/12 09:45:07;;;;;;;22.60;11.70;;;19.10;96.90;;;;;;5117234;27;20380;-81
2021/11/12 09:47:33;;;;;;;21.83;13.15;;;19.20;96.60;;;;;;5115868;28;20029;-80
2021/11/12 09:50:03;;;;;;;22.42;12.10;;;19.20;96.50;;;;;;5117082;28;20020;-73
2021/11/12 09:52:32;;;;;;;21.75;12.10;;;19.30;96.20;;;;;;5116409;28;20027;-77
2021/11/12 09:54:59;;;;;;;17.67;11.23;;;19.40;96.00;;;;;;5116967;28;20020;-77
2021/11/12 09:57:26;;;;;;;18.00;11.73;;;19.40;95.70;;;;;;5115152;28;20028;-80
2021/11/12 10:00:02;;;;;;;16.85;10.88;;;19.40;95.40;;;;;;5116642;28;20027;-67
2021/11/12 10:02:30;;;;;;;20.58;11.73;;;19.50;95.50;;;;;;5115150;28;20028;-72
2021/11/12 10:04:57;;;;;;;18.08;13.32;;;19.50;94.90;;;;;;5115425;28;20491;-70
2021/11/12 10:07:25;;;;;;;16.98;10.77;;;19.50;94.60;;;;;;5098347;28;20032;-68
2021/11/12 10:10:08;;;;;;;20.98;11.48;;;19.50;94.50;;;;;;5116635;28;20023;-70
2021/11/12 10:12:40;;;;;;;19.35;11.95;;;19.60;94.50;;;;;;5116443;28;20432;-70
2021/11/12 10:15:30;;;;;;;18.20;11.98;;;19.60;94.30;;;;;;5116850;28;20054;-77
2021/11/12 10:18:10;;;;;;;20.30;10.63;;;19.60;94.00;;;;;;5117071;28;20102;-78
2021/11/12 10:20:36;;;;;;;20.63;10.52;;;19.60;93.90;;;;;;5116805;28;20020;-69
2021/11/12 10:23:16;;;;;;;16.30;10.60;;;19.60;93.70;;;;;;5114971;28;20055;-67
2021/11/12 10:26:01;;;;;;;17.23;10.43;;;19.60;93.60;;;;;;5116680;28;20028;-68
2021/11/12 10:28:39;;;;;;;13.93;10.18;;;19.60;93.30;;;;;;5115586;28;20124;-70
2021/11/12 10:31:17;;;;;;;17.20;11.35;;;19.60;93.20;;;;;;5116578;28;20107;-71
2021/11/12 10:33:48;;;;;;;18.20;10.95;;;19.60;93.00;;;;;;5117140;28;20590;-69
2021/11/12 10:36:14;;;;;;;21.30;10.45;;;19.70;93.00;;;;;;5116883;28;20026;-68
2021/11/12 10:38:42;;;;;;;16.73;9.55;;;19.80;92.80;;;;;;5116995;28;20373;-76
2021/11/12 10:41:21;;;;;;;16.73;10.73;;;19.90;92.70;;;;;;5117552;28;20028;-77
2021/11/12 10:43:50;;;;;;;18.60;11.52;;;20.00;92.40;;;;;;5119254;28;20025;-71
2021/11/12 10:46:31;;;;;;;17.98;10.98;;;20.00;92.20;;;;;;5124221;28;20020;-74
2021/11/12 10:48:57;;;;;;;16.17;10.43;;;20.10;92.10;;;;;;5122143;28;20051;-68
2021/11/12 10:51:23;;;;;;;19.30;11.38;;;20.20;92.10;;;;;;5126072;28;20027;-82
2021/11/12 10:53:53;;;;;;;17.17;10.85;;;20.30;91.90;;;;;;5122950;28;20032;-81
2021/11/12 10:56:21;;;;;;;22.52;11.75;;;20.40;91.90;;;;;;5116593;28;20031;-80
2021/11/12 10:59:05;;;;;;;15.88;9.43;;;20.40;91.40;;;;;;5116743;28;20475;-77
2021/11/12 11:01:37;;;;;;;18.00;10.27;;;20.40;91.50;;;;;;5114061;28;20044;-78
2021/11/12 11:04:22;;;;;;;16.13;9.35;;;20.40;91.40;;;;;;5115855;27;20030;-75
2021/11/12 11:06:50;;;;;;;14.38;9.63;;;20.40;91.10;;;;;;5115830;28;20035;-77
2021/11/12 11:09:35;;;;;;;17.85;10.10;;;20.50;90.90;;;;;;5115575;28;20153;-78
2021/11/12 11:12:01;;;;;;;14.57;10.77;;;20.60;90.80;;;;;;5115541;28;20349;-73
2021/11/12 11:14:31;;;;;;;19.50;10.70;;;20.70;90.80;;;;;;5116161;28;20503;-79
2021/11/12 11:17:25;;;;;;;16.17;9.70;;;20.80;90.70;;;;;;5115759;28;20464;-76
2021/11/12 11:19:53;;;;;;;16.00;10.55;;;20.80;90.60;;;;;;5116313;28;20024;-81
2021/11/12 11:22:18;;;;;;;13.73;8.98;;;20.80;90.30;;;;;;5115705;28;20130;-81
2021/11/12 11:24:49;;;;;;;14.35;9.43;;;20.90;90.10;;;;;;5116147;28;20059;-80
2021/11/12 11:27:15;;;;;;;15.55;9.07;;;20.90;89.80;;;;;;5115781;28;20421;-74
2021/11/12 11:29:41;;;;;;;16.30;9.50;;;20.90;89.50;;;;;;5116079;27;20447;-80
2021/11/12 11:32:11;;;;;;;16.38;9.30;;;20.90;89.20;;;;;;5116156;28;20024;-80
2021/11/12 11:34:38;;;;;;;18.58;10.13;;;20.90;89.80;;;;;;5115734;28;20039;-79
2021/11/12 11:37:06;;;;;;;14.95;9.35;;;20.90;88.60;;;;;;5116722;28;20065;-76
2021/11/12 11:39:33;;;;;;;17.50;9.68;;;20.90;89.30;;;;;;5116084;28;20031;-77
2021/11/12 11:41:59;;;;;;;16.77;10.48;;;21.00;88.40;;;;;;5113532;28;20027;-78
2021/11/12 11:44:26;;;;;;;16.35;9.77;;;21.10;88.10;;;;;;5115406;28;20026;-83
2021/11/12 11:46:58;;;;;;;14.80;9.60;;;21.00;88.40;;;;;;5114703;28;20027;-79
2021/11/12 11:49:25;;;;;;;18.88;9.50;;;21.00;87.50;;;;;;5116146;28;20030;-82
2021/11/12 11:52:04;;;;;;;17.25;9.70;;;20.90;87.50;;;;;;5114752;27;20027;-79
2021/11/12 11:54:45;;;;;;;27.27;10.95;;;20.90;87.70;;;;;;5112890;28;20043;-81
2021/11/12 11:57:16;;;;;;;16.10;10.27;;;21.00;87.90;;;;;;5115653;28;20027;-80
2021/11/12 11:59:45;;;;;;;16.08;9.77;;;21.10;87.40;;;;;;5113924;28;20059;-79
2021/11/12 12:02:16;;;;;;;18.20;10.35;;;21.10;87.80;;;;;;5096916;28;20028;-76
2021/11/12 12:04:49;;;;;;;19.27;10.25;;;21.10;86.70;;;;;;5115162;28;20147;-78
2021/11/12 12:07:24;;;;;;;17.88;9.85;;;21.20;86.70;;;;;;5114289;28;20031;-70
2021/11/12 12:10:15;;;;;;;17.17;10.77;;;21.20;87.30;;;;;;5113873;28;20020;-69
2021/11/12 12:12:44;;;;;;;17.92;10.40;;;21.20;86.60;;;;;;5104958;28;20038;-80
2021/11/12 12:15:13;;;;;;;18.48;10.13;;;21.30;87.30;;;;;;5115260;28;20574;-77
2021/11/12 12:17:46;;;;;;;13.88;8.98;;;21.30;87.20;;;;;;5113887;28;20039;-68
2021/11/12 12:20:53;;;;;;;18.23;10.43;;;21.30;85.90;;;;;;5113660;28;20115;-70
2021/11/12 13:25:43;;;;;;;13.63;7.67;;;21.20;83.10;;;;;;5113403;28;20130;-69
2021/11/12 13:28:27;;;;;;;12.25;7.22;;;21.40;82.00;;;;;;5113652;28;20023;-77
2021/11/12 13:31:04;;;;;;;10.85;6.18;;;21.60;81.10;;;;;;5111962;28;20039;-76
2021/11/12 13:33:35;;;;;;;15.88;6.72;;;21.80;80.10;;;;;;5113900;28;20024;-70
2021/11/12 13:36:07;;;;;;;13.73;7.20;;;21.90;78.90;;;;;;5113143;28;20066;-69
2021/11/12 13:38:41;;;;;;;14.43;7.10;;;21.90;78.50;;;;;;5114014;28;20019;-78
2021/11/12 13:41:09;;;;;;;13.63;8.93;;;22.00;78.50;;;;;;5114345;28;21036;-77
2021/11/12 13:43:41;;;;;;;13.52;7.53;;;22.00;78.50;;;;;;5114913;28;20371;-68
2021/11/12 13:46:07;;;;;;;17.38;8.60;;;22.00;78.40;;;;;;5113234;28;20049;-69
2021/11/12 13:48:51;;;;;;;15.38;8.55;;;22.10;78.10;;;;;;5114516;28;20030;-79
2021/11/12 13:51:30;;;;;;;12.70;8.25;;;22.10;78.30;;;;;;5114283;28;20056;-80
2021/11/12 13:53:58;;;;;;;13.45;7.65;;;22.10;77.70;;;;;;5113545;28;20138;-69
2021/11/12 13:56:25;;;;;;;19.30;8.85;;;22.20;77.50;;;;;;5113183;28;20023;-71
2021/11/12 13:59:16;;;;;;;13.60;7.85;;;22.20;77.60;;;;;;5114082;28;20027;-78
2021/11/12 14:01:58;;;;;;;10.02;6.35;;;22.20;77.20;;;;;;5123172;28;20028;-72
2021/11/12 14:04:27;;;;;;;17.63;7.32;;;22.30;76.80;;;;;;5122642;28;20130;-67
2021/11/12 14:06:55;;;;;;;13.85;7.32;;;22.30;76.40;;;;;;5119275;28;20088;-68
2021/11/12 14:09:23;;;;;;;12.75;7.22;;;22.40;76.20;;;;;;5116116;28;20459;-72
2021/11/12 14:12:04;;;;;;;13.55;7.28;;;22.40;76.50;;;;;;5117028;28;20035;-74
2021/11/12 14:14:31;;;;;;;8.85;5.28;;;22.40;76.00;;;;;;5115804;28;20122;-74
2021/11/12 14:17:03;;;;;;;6.60;4.05;;;22.50;74.90;;;;;;5116326;28;20039;-68
2021/11/12 14:19:57;;;;;;;11.45;4.47;;;22.50;73.80;;;;;;5115481;28;20110;-81
2021/11/12 14:28:08;;;;;;;9.63;4.07;;;22.60;72.30;;;;;;5116737;27;20125;-68
2021/11/12 14:34:01;;;;;;;9.70;4.07;;;22.70;71.50;;;;;;5119900;28;20077;-76
2021/11/12 14:39:20;;;;;;;8.20;3.90;;;22.60;68.60;;;;;;5115800;28;20398;-70
2021/11/12 14:44:57;;;;;;;8.02;4.15;;;22.60;68.60;;;;;;5116534;28;20116;-70
2021/11/12 14:47:36;;;;;;;10.23;4.43;;;22.60;70.30;;;;;;5116075;28;20110;-67
2021/11/12 14:53:24;;;;;;;10.75;4.35;;;22.60;68.50;;;;;;5116412;28;20088;-69
2021/11/12 14:55:59;;;;;;;8.82;4.45;;;22.60;68.30;;;;;;5115519;28;20016;-69
2021/11/12 14:58:25;;;;;;;9.02;4.22;;;22.70;70.40;;;;;;5115411;28;20032;-68
2021/11/12 15:00:53;;;;;;;11.93;4.45;;;22.70;70.20;;;;;;5115407;28;20020;-67
2021/11/12 15:03:20;;;;;;;10.20;4.45;;;22.60;69.30;;;;;;5117205;28;20082;-73
2021/11/12 15:05:46;;;;;;;15.15;4.70;;;22.60;70.70;;;;;;5118039;28;20019;-78
2021/11/12 15:10:41;;;;;;;13.77;4.25;;;22.40;70.20;;;;;;5116376;28;20020;-72
2021/11/12 15:13:10;;;;;;;14.15;4.65;;;22.20;71.40;;;;;;5116072;28;20507;-79
2021/11/12 15:15:37;;;;;;;10.30;4.75;;;22.10;72.30;;;;;;5116248;28;20019;-68
2021/11/12 15:18:06;;;;;;;13.73;4.47;;;22.00;70.90;;;;;;5115123;28;20043;-67
2021/11/12 15:20:34;;;;;;;9.43;4.47;;;22.00;72.90;;;;;;5113975;28;20039;-67
2021/11/12 15:26:02;;;;;;;11.32;4.70;;;21.80;71.60;;;;;;5115298;28;20031;-70
2021/11/12 15:28:46;;;;;;;9.20;5.20;;;21.70;72.50;;;;;;5114915;28;20504;-69
2021/11/12 15:32:05;;;;;;;9.55;4.15;;;21.60;72.60;;;;;;5115456;28;20028;-80
2021/11/12 15:34:08;;;;;;;11.35;4.50;;;21.50;71.20;;;;;;5112210;28;20039;-68
2021/11/12 15:36:46;;;;;;;11.30;4.10;;;21.30;72.60;;;;;;5114902;28;20315;-70
2021/11/12 15:39:16;;;;;;;10.13;4.07;;;21.20;72.60;;;;;;5114803;28;20076;-66
2021/11/12 15:42:16;;;;;;;8.80;4.22;;;21.10;73.20;;;;;;5114532;28;20008;-68
2021/11/12 15:44:39;;;;;;;11.50;4.18;;;20.90;73.90;;;;;;5114651;28;20426;-69
2021/11/12 15:49:41;;;;;;;8.52;4.75;;;20.60;75.10;;;;;;5114632;28;20028;-69
2021/11/12 15:52:16;;;;;;;9.93;4.63;;;20.50;75.70;;;;;;5114526;28;20102;-76
2021/11/12 16:08:18;;;;;;;16.63;5.47;;;20.00;79.30;;;;;;5071414;28;20036;-67
2021/11/12 16:13:19;;;;;;;12.93;5.10;;;19.80;80.30;;;;;;5113055;28;20473;-68
2021/11/12 16:18:41;;;;;;;10.50;5.32;;;19.70;80.70;;;;;;5114059;28;20031;-75
2021/11/12 16:26:15;;;;;;;16.90;6.35;;;19.50;82.00;;;;;;5112573;28;20047;-68
2021/11/12 16:31:19;;;;;;;14.32;6.32;;;19.40;83.20;;;;;;5113519;28;20063;-68
2021/11/12 16:33:44;;;;;;;11.25;5.70;;;19.40;83.80;;;;;;5113335;28;20063;-68
2021/11/12 16:36:10;;;;;;;15.27;6.07;;;19.40;84.10;;;;;;5113753;28;20028;-71
2021/11/12 16:38:37;;;;;;;13.27;6.32;;;19.40;84.40;;;;;;5113505;28;20023;-68
2021/11/12 16:41:11;;;;;;;13.75;6.45;;;19.40;84.90;;;;;;5113496;28;20509;-76
2021/11/12 16:49:25;;;;;;;15.00;8.52;;;19.30;86.20;;;;;;5113407;28;20031;-71
2021/11/12 16:52:18;;;;;;;13.55;7.57;;;19.30;86.60;;;;;;5112512;28;20036;-67
2021/11/12 16:55:09;;;;;;;12.57;7.35;;;19.20;86.80;;;;;;5113761;28;20468;-81
2021/11/12 17:02:58;;;;;;;13.63;7.13;;;19.10;88.00;;;;;;5113788;28;20418;-74
2021/11/12 17:05:35;;;;;;;20.77;7.63;;;19.10;88.60;;;;;;5114092;28;20032;-80
2021/11/12 17:49:05;;;;;;;15.02;9.38;;;18.80;91.50;;;;;;5117075;28;20088;-67
2021/11/12 21:45:42;;;;;;;27.00;18.58;;;16.50;98.00;;;;;;5117472;28;20042;-75
2021/11/12 21:48:08;;;;;;;25.60;17.70;;;16.50;98.00;;;;;;5117363;28;20028;-74
2021/11/12 21:50:35;;;;;;;27.13;18.17;;;16.50;98.20;;;;;;5116966;28;20020;-74
2021/11/12 21:53:02;;;;;;;31.88;20.92;;;16.50;97.90;;;;;;5117431;28;20032;-74
2021/11/12 21:55:28;;;;;;;25.60;18.90;;;16.50;97.90;;;;;;5117327;28;20027;-77
2021/11/12 21:57:53;;;;;;;26.08;17.85;;;16.50;97.90;;;;;;5117330;27;20031;-77
2021/11/12 22:00:20;;;;;;;27.60;19.58;;;16.50;98.00;;;;;;5117455;28;20106;-78
2021/11/12 22:02:45;;;;;;;31.92;18.45;;;16.40;98.00;;;;;;5117370;28;20031;-72
2021/11/12 22:05:11;;;;;;;41.00;19.30;;;16.40;98.10;;;;;;5117424;28;20035;-77
2021/11/12 22:07:37;;;;;;;29.17;17.85;;;16.40;98.00;;;;;;5117348;27;20024;-75
2021/11/12 22:10:07;;;;;;;25.77;17.23;;;16.30;98.00;;;;;;5117497;28;20030;-74
2021/11/12 22:12:34;;;;;;;27.42;17.23;;;16.30;97.90;;;;;;5117452;28;20032;-76
2021/11/12 22:15:00;;;;;;;25.20;17.42;;;16.30;98.10;;;;;;5117019;28;20077;-72
2021/11/12 22:17:25;;;;;;;27.92;18.15;;;16.30;98.10;;;;;;5116664;28;20027;-74
2021/11/12 22:19:51;;;;;;;23.58;16.17;;;16.20;98.10;;;;;;5115913;28;20034;-77
2021/11/12 22:22:17;;;;;;;24.60;16.65;;;16.20;98.20;;;;;;5116490;28;20123;-74
2021/11/12 22:24:43;;;;;;;22.83;15.93;;;16.20;98.20;;;;;;5116993;28;20098;-76
2021/11/12 22:27:09;;;;;;;23.77;15.88;;;16.10;98.20;;;;;;5116010;28;20031;-74
2021/11/12 22:29:35;;;;;;;23.70;16.00;;;16.10;98.30;;;;;;5116743;28;20080;-79
2021/11/12 22:32:01;;;;;;;22.33;16.73;;;16.10;98.30;;;;;;5116755;28;20036;-72
2021/11/12 22:34:27;;;;;;;27.17;16.40;;;16.20;98.40;;;;;;5115758;28;20427;-75
2021/11/12 22:36:53;;;;;;;24.13;17.85;;;16.20;98.30;;;;;;5115247;28;20059;-75
2021/11/12 22:39:21;;;;;;;23.88;17.77;;;16.10;98.50;;;;;;5116519;28;20090;-78
2021/11/12 22:41:47;;;;;;;27.23;18.35;;;16.10;98.50;;;;;;5116640;28;20465;-77
2021/11/12 22:44:15;;;;;;;25.05;17.80;;;16.10;98.60;;;;;;5116518;28;20027;-79
2021/11/12 22:46:41;;;;;;;31.23;19.20;;;16.10;98.70;;;;;;5116210;28;20019;-77
2021/11/12 22:49:08;;;;;;;27.88;18.00;;;16.00;98.90;;;;;;5115710;28;20480;-76
2021/11/12 22:51:34;;;;;;;35.20;18.70;;;16.00;99.10;;;;;;5116164;28;20034;-76
2021/11/12 22:54:01;;;;;;;31.52;20.13;;;16.00;99.20;;;;;;5116072;28;20214;-74
2021/11/12 22:56:27;;;;;;;28.58;18.55;;;16.00;99.30;;;;;;5115974;28;20436;-72
2021/11/12 22:58:54;;;;;;;29.27;19.25;;;15.90;99.50;;;;;;5132620;27;20538;-71
2021/11/12 23:01:23;;;;;;;28.65;20.15;;;15.90;99.70;;;;;;5136337;27;20027;-71
2021/11/12 23:03:49;;;;;;;31.30;18.80;;;15.80;99.80;;;;;;5136190;27;20027;-72
2021/11/12 23:06:15;;;;;;;33.72;19.77;;;15.80;99.90;;;;;;5136283;27;20380;-70
2021/11/12 23:08:41;;;;;;;34.70;19.67;;;15.80;99.90;;;;;;5135887;27;20018;-72